| time (UTC) | temp F | wind direction | speed MPH | gust MPH | rain 1hr in | rain 24hr in | rain mn in | humidity % | barometer mb |
| 20260506231538 | 59 | 20 | 0.0 | 0.0 | 0.00 | 0.17 | 0.17 | 93 | 1003.1 |
| 20260506230037 | 59 | 62 | 0.0 | 0.0 | 0.00 | 0.17 | 0.17 | 93 | 1003.1 |
| 20260506224537 | 59 | 76 | 0.0 | 0.0 | 0.00 | 0.17 | 0.17 | 94 | 1003.1 |
| 20260506223035 | 59 | 57 | 0.0 | 0.0 | 0.00 | 0.17 | 0.17 | 94 | 1003.2 |
| 20260506221533 | 59 | 51 | 0.0 | 0.0 | 0.00 | 0.17 | 0.17 | 94 | 1003.4 |
| 20260506220033 | 59 | 53 | 0.0 | 0.0 | 0.00 | 0.17 | 0.17 | 94 | 1003.5 |
| 20260506214531 | 58 | 200 | 0.0 | 0.0 | 0.01 | 0.17 | 0.17 | 93 | 1003.5 |
| 20260506213031 | 59 | 25 | 0.0 | 1.0 | 0.01 | 0.17 | 0.17 | 93 | 1003.6 |
| 20260506211528 | 59 | 22 | 0.0 | 0.0 | 0.01 | 0.17 | 0.17 | 93 | 1003.8 |
| 20260506210059 | 59 | 22 | 0.0 | 0.0 | 0.01 | 0.17 | 0.17 | 93 | 1003.9 |
| 20260506204556 | 60 | 22 | 0.0 | 0.0 | 0.03 | 0.16 | 0.16 | 94 | 1004.0 |
| 20260506203054 | 59 | 22 | 0.0 | 0.0 | 0.05 | 0.16 | 0.16 | 94 | 1004.2 |
| 20260506201551 | 59 | 22 | 0.0 | 0.0 | 0.06 | 0.16 | 0.16 | 93 | 1004.4 |
| 20260506200049 | 59 | 22 | 0.0 | 0.0 | 0.07 | 0.16 | 0.16 | 93 | 1004.4 |
| 20260506194548 | 60 | 22 | 0.0 | 0.0 | 0.05 | 0.13 | 0.13 | 93 | 1004.6 |
| 20260506193048 | 60 | 22 | 0.0 | 0.0 | 0.03 | 0.11 | 0.11 | 93 | 1004.8 |
| 20260506191544 | 60 | 89 | 0.0 | 0.0 | 0.03 | 0.10 | 0.10 | 93 | 1005.0 |
| 20260506190044 | 60 | 65 | 0.0 | 0.0 | 0.04 | 0.09 | 0.09 | 94 | 1005.1 |
| 20260506184526 | 60 | 82 | 0.0 | 0.0 | 0.05 | 0.08 | 0.08 | 94 | 1005.3 |
| 20260506183026 | 60 | 47 | 0.0 | 0.0 | 0.06 | 0.08 | 0.08 | 94 | 1005.3 |
| 20260506181524 | 60 | 47 | 0.0 | 0.0 | 0.07 | 0.07 | 0.07 | 94 | 1005.7 |
| 20260506180023 | 60 | 47 | 0.0 | 0.0 | 0.05 | 0.05 | 0.05 | 93 | 1005.7 |
| 20260506174522 | 60 | 47 | 0.0 | 0.0 | 0.03 | 0.03 | 0.03 | 92 | 1005.9 |
| 20260506173022 | 60 | 47 | 0.0 | 0.0 | 0.02 | 0.02 | 0.02 | 91 | 1005.7 |
| 20260506171522 | 61 | 47 | 0.0 | 0.0 | 0.00 | 0.00 | 0.00 | 89 | 1005.6 |
| 20260506170022 | 62 | 47 | 0.0 | 0.0 | 0.00 | 0.00 | 0.00 | 85 | 1005.6 |
| 20260506164519 | 62 | 47 | 0.0 | 0.0 | 0.00 | 0.00 | 0.00 | 83 | 1005.7 |
| 20260506163031 | 62 | 47 | 0.0 | 0.0 | 0.00 | 0.00 | 0.00 | 83 | 1005.8 |
| 20260506161515 | 62 | 47 | 0.0 | 0.0 | 0.00 | 0.00 | 0.00 | 84 | 1006.2 |
| 20260506160018 | 62 | 47 | 0.0 | 0.0 | 0.00 | 0.00 | 0.00 | 82 | 1006.9 |
| 20260506154510 | 61 | 47 | 0.0 | 0.0 | 0.00 | 0.00 | 0.00 | 80 | 1007.4 |
| 20260506153010 | 61 | 47 | 0.0 | 0.0 | 0.00 | 0.00 | 0.00 | 81 | 1007.4 |
| 20260506151509 | 62 | 47 | 0.0 | 0.0 | 0.00 | 0.00 | 0.00 | 80 | 1007.5 |
| 20260506150008 | 62 | 47 | 0.0 | 0.0 | 0.00 | 0.00 | 0.00 | 79 | 1007.3 |
| 20260506144507 | 62 | 47 | 0.0 | 0.0 | 0.00 | 0.00 | 0.00 | 79 | 1007.5 |
| 20260506143005 | 61 | 47 | 0.0 | 0.0 | 0.00 | 0.00 | 0.00 | 79 | 1007.2 |
| 20260506141501 | 61 | 47 | 0.0 | 0.0 | 0.00 | 0.00 | 0.00 | 80 | 1007.3 |
| 20260506134559 | 60 | 47 | 0.0 | 0.0 | 0.00 | 0.00 | 0.00 | 80 | 1007.5 |
| 20260506133059 | 60 | 47 | 0.0 | 0.0 | 0.00 | 0.00 | 0.00 | 81 | 1007.8 |
| 20260506131600 | 59 | 47 | 0.0 | 0.0 | 0.00 | 0.00 | 0.00 | 81 | 1007.7 |
| 20260506130100 | 60 | 47 | 0.0 | 0.0 | 0.00 | 0.00 | 0.00 | 79 | 1007.7 |
| 20260506124557 | 60 | 47 | 0.0 | 0.0 | 0.00 | 0.00 | 0.00 | 79 | 1007.7 |
| 20260506123053 | 60 | 47 | 0.0 | 0.0 | 0.00 | 0.00 | 0.00 | 81 | 1007.7 |
| 20260506121550 | 59 | 47 | 0.0 | 0.0 | 0.00 | 0.00 | 0.00 | 80 | 1007.9 |
| 20260506120019 | 58 | 47 | 0.0 | 0.0 | 0.00 | 0.00 | 0.00 | 84 | 1008.1 |
| 20260506114517 | 58 | 47 | 0.0 | 0.0 | 0.00 | 0.00 | 0.00 | 86 | 1007.8 |
| 20260506113017 | 56 | 47 | 0.0 | 0.0 | 0.00 | 0.00 | 0.00 | 89 | 1008.0 |
| 20260506111515 | 55 | 47 | 0.0 | 0.0 | 0.00 | 0.00 | 0.00 | 91 | 1008.0 |
| 20260506110015 | 54 | 47 | 0.0 | 0.0 | 0.00 | 0.00 | 0.00 | 91 | 1008.0 |
| 20260506104513 | 54 | 47 | 0.0 | 0.0 | 0.00 | 0.00 | 0.00 | 91 | 1008.6 |
| 20260506103011 | 53 | 47 | 0.0 | 0.0 | 0.00 | 0.00 | 0.00 | 91 | 1008.3 |
| 20260506101509 | 53 | 47 | 0.0 | 0.0 | 0.00 | 0.00 | 0.00 | 90 | 1008.0 |
| 20260506100008 | 54 | 47 | 0.0 | 0.0 | 0.00 | 0.00 | 0.00 | 90 | 1007.8 |
| 20260506094504 | 54 | 47 | 0.0 | 0.0 | 0.00 | 0.00 | 0.00 | 89 | 1007.5 |
| 20260506093004 | 55 | 47 | 0.0 | 0.0 | 0.00 | 0.00 | 0.00 | 88 | 1007.9 |
| 20260506091600 | 55 | 47 | 0.0 | 0.0 | 0.00 | 0.00 | 0.00 | 87 | 1007.7 |
| 20260506090058 | 55 | 47 | 0.0 | 0.0 | 0.00 | 0.00 | 0.00 | 87 | 1007.8 |
| 20260506084557 | 56 | 47 | 0.0 | 0.0 | 0.00 | 0.00 | 0.00 | 86 | 1007.8 |
| 20260506083102 | 56 | 47 | 0.0 | 0.0 | 0.00 | 0.00 | 0.00 | 86 | 1007.8 |
| 20260506081553 | 56 | 47 | 0.0 | 0.0 | 0.00 | 0.00 | 0.00 | 86 | 1007.8 |
| 20260506073049 | 56 | 47 | 0.0 | 0.0 | 0.00 | 0.00 | 0.00 | 88 | 1007.6 |
| 20260506071547 | 57 | 47 | 0.0 | 0.0 | 0.00 | 0.00 | 0.00 | 89 | 1007.6 |
| 20260506061545 | 58 | 47 | 0.0 | 0.0 | 0.00 | 0.00 | 0.00 | 87 | 1007.4 |
| 20260506044545 | 57 | 47 | 0.0 | 0.0 | 0.00 | 0.00 | 0.00 | 89 | 1007.5 |
| 20260506043037 | 57 | 47 | 0.0 | 0.0 | 0.00 | 0.00 | 0.00 | 89 | 1007.4 |
| 20260506041535 | 57 | 47 | 0.0 | 0.0 | 0.00 | 0.00 | 0.00 | 89 | 1007.3 |
| 20260506040051 | 57 | 47 | 0.0 | 0.0 | 0.00 | 0.00 | 0.00 | 89 | 1007.5 |
| 20260506034534 | 58 | 47 | 0.0 | 0.0 | 0.00 | 0.00 | 0.00 | 88 | 1007.3 |
| 20260506033025 | 57 | 47 | 0.0 | 0.0 | 0.00 | 0.00 | 0.00 | 86 | 1007.7 |
| 20260506031539 | 57 | 47 | 0.0 | 0.0 | 0.00 | 0.00 | 0.00 | 86 | 1007.2 |
| 20260506030023 | 57 | 47 | 0.0 | 0.0 | 0.00 | 0.00 | 0.00 | 86 | 1007.2 |
| 20260506024523 | 58 | 47 | 0.0 | 0.0 | 0.00 | 0.00 | 0.00 | 85 | 1007.3 |
| 20260506023022 | 58 | 47 | 0.0 | 0.0 | 0.00 | 0.00 | 0.00 | 84 | 1007.1 |
| 20260506021521 | 59 | 47 | 0.0 | 0.0 | 0.00 | 0.00 | 0.00 | 82 | 1007.1 |
| 20260506020021 | 60 | 47 | 0.0 | 0.0 | 0.00 | 0.00 | 0.00 | 81 | 1007.3 |
| 20260506014520 | 61 | 47 | 0.0 | 0.0 | 0.00 | 0.00 | 0.00 | 81 | 1007.3 |
| 20260506013020 | 61 | 47 | 0.0 | 0.0 | 0.00 | 0.00 | 0.00 | 81 | 1007.4 |
| 20260506011520 | 61 | 47 | 0.0 | 0.0 | 0.00 | 0.00 | 0.00 | 81 | 1007.3 |
| 20260506010019 | 61 | 47 | 0.0 | 0.0 | 0.00 | 0.00 | 0.00 | 82 | 1007.2 |
| 20260506004524 | 61 | 47 | 0.0 | 0.0 | 0.00 | 0.00 | 0.00 | 81 | 1007.2 |
| 20260506003018 | 62 | 47 | 0.0 | 0.0 | 0.00 | 0.00 | 0.00 | 80 | 1006.8 |
| 20260506001517 | 62 | 47 | 0.0 | 0.0 | 0.00 | 0.00 | 0.00 | 78 | 1006.6 |
| 20260506000021 | 63 | 47 | 0.0 | 0.0 | 0.00 | 0.00 | 0.00 | 76 | 1006.3 |
| 20260505234517 | 63 | 47 | 0.0 | 0.0 | 0.00 | 0.00 | 0.00 | 74 | 1006.0 |
| 20260505233017 | 64 | 47 | 0.0 | 0.0 | 0.00 | 0.00 | 0.00 | 72 | 1006.0 |